Time;durP1;ratioP1;P1;durP2;ratioP2;P2;SDS_P1;SDS_P2;PMS_P1;PMS_P2;Temp;Humidity;BMP_temperature;BMP_pressure;BME280_temperature;BME280_humidity;BME280_pressure;Samples;Min_cycle;Max_cycle;Signal;HPM_P1;HPM_P2
2022/03/09 00:00:39;;;;;;;3.00;1.30;;;3.20;99.90;;;;;;5049917;28;20440;-63
2022/03/09 00:03:06;;;;;;;3.40;1.73;;;3.10;99.90;;;;;;5054000;28;20537;-60
2022/03/09 00:05:34;;;;;;;3.40;1.50;;;3.00;99.90;;;;;;5054635;28;20413;-60
2022/03/09 00:08:01;;;;;;;3.20;1.50;;;3.00;99.90;;;;;;5051271;28;20462;-59
2022/03/09 00:10:28;;;;;;;4.57;1.77;;;3.00;99.90;;;;;;5051215;28;20441;-60
2022/03/09 00:12:55;;;;;;;4.70;2.00;;;3.00;99.90;;;;;;5053600;28;20435;-59
2022/03/09 00:15:22;;;;;;;3.30;1.80;;;3.00;99.90;;;;;;5055390;28;20464;-60
2022/03/09 00:17:50;;;;;;;4.40;1.80;;;3.00;99.90;;;;;;5052493;28;20437;-60
2022/03/09 00:20:17;;;;;;;4.30;1.50;;;2.90;99.90;;;;;;5055205;28;20508;-60
2022/03/09 00:22:44;;;;;;;3.30;1.52;;;2.90;99.90;;;;;;5053728;28;20464;-59
2022/03/09 00:25:11;;;;;;;4.45;2.00;;;2.90;99.90;;;;;;5055810;28;20441;-59
2022/03/09 00:27:38;;;;;;;4.97;2.33;;;3.00;99.90;;;;;;5051175;28;21084;-62
2022/03/09 00:30:06;;;;;;;2.70;1.50;;;3.00;99.90;;;;;;5053102;28;20509;-60
2022/03/09 00:32:33;;;;;;;5.55;2.30;;;3.00;99.90;;;;;;5053129;28;20425;-59
2022/03/09 00:35:02;;;;;;;4.82;1.80;;;2.90;99.90;;;;;;5053170;28;20421;-59
2022/03/09 00:37:29;;;;;;;2.83;1.93;;;2.80;99.90;;;;;;5051175;28;20513;-60
2022/03/09 00:39:55;;;;;;;5.00;2.27;;;2.70;99.90;;;;;;5051932;28;20428;-60
2022/03/09 00:42:23;;;;;;;3.43;2.00;;;2.70;99.90;;;;;;5053145;28;20988;-60
2022/03/09 00:44:50;;;;;;;5.50;2.63;;;2.80;99.90;;;;;;5052791;28;20457;-60
2022/03/09 00:47:16;;;;;;;3.90;1.95;;;2.90;99.90;;;;;;5053577;28;20480;-60
2022/03/09 00:49:43;;;;;;;6.63;2.55;;;2.90;99.90;;;;;;5053175;28;20803;-60
2022/03/09 00:52:12;;;;;;;5.78;2.50;;;3.00;99.90;;;;;;5055498;28;20513;-60
2022/03/09 00:54:38;;;;;;;5.28;2.35;;;2.90;99.90;;;;;;5052972;28;20524;-60
2022/03/09 00:57:05;;;;;;;5.63;2.40;;;2.80;99.90;;;;;;5054655;28;20513;-60
2022/03/09 00:59:32;;;;;;;3.97;1.90;;;2.90;99.90;;;;;;5052772;28;20519;-59
2022/03/09 01:01:59;;;;;;;4.15;1.95;;;2.90;99.90;;;;;;5054567;28;20433;-59
2022/03/09 01:04:26;;;;;;;3.47;1.60;;;2.60;99.90;;;;;;5053076;28;20869;-59
2022/03/09 01:06:53;;;;;;;3.85;1.95;;;2.50;99.90;;;;;;5055003;28;20523;-60
2022/03/09 01:09:21;;;;;;;3.35;1.48;;;2.30;99.90;;;;;;5053957;28;20568;-60
2022/03/09 01:11:48;;;;;;;3.38;1.75;;;2.30;99.90;;;;;;5054525;28;20449;-59
2022/03/09 01:14:15;;;;;;;4.03;1.70;;;2.40;99.90;;;;;;5052333;28;20524;-59
2022/03/09 01:16:42;;;;;;;6.07;2.00;;;2.50;99.90;;;;;;5055037;28;20500;-59
2022/03/09 01:19:09;;;;;;;3.90;1.70;;;2.30;99.90;;;;;;5053445;28;20591;-60
2022/03/09 01:21:36;;;;;;;3.60;1.87;;;2.00;99.90;;;;;;5054960;28;20541;-60
2022/03/09 01:24:03;;;;;;;4.80;2.15;;;1.90;99.90;;;;;;5051976;28;20548;-59
2022/03/09 01:26:31;;;;;;;3.38;1.50;;;1.80;99.90;;;;;;5054529;28;20511;-60
2022/03/09 01:28:58;;;;;;;5.68;1.92;;;1.80;99.90;;;;;;5054171;28;20425;-60
2022/03/09 01:31:25;;;;;;;5.63;2.30;;;1.90;99.90;;;;;;5054432;28;20461;-60
2022/03/09 01:33:52;;;;;;;4.38;1.67;;;2.00;99.90;;;;;;5050805;28;20523;-60
2022/03/09 01:36:19;;;;;;;3.85;1.90;;;2.00;99.90;;;;;;5054869;28;20512;-60
2022/03/09 01:38:46;;;;;;;4.00;1.90;;;2.00;99.90;;;;;;5053348;28;20894;-60
2022/03/09 01:41:13;;;;;;;4.70;2.20;;;2.10;99.90;;;;;;5052642;28;20540;-60
2022/03/09 01:43:41;;;;;;;4.00;1.80;;;2.20;99.90;;;;;;5053169;28;20560;-60
2022/03/09 01:46:08;;;;;;;5.00;2.20;;;2.30;99.90;;;;;;5054548;28;20461;-59
2022/03/09 01:48:35;;;;;;;5.00;1.80;;;2.40;99.90;;;;;;5053362;28;20463;-59
2022/03/09 01:51:03;;;;;;;4.45;2.22;;;2.40;99.90;;;;;;5057489;28;20537;-59
2022/03/09 01:53:30;;;;;;;4.00;1.83;;;2.30;99.90;;;;;;5057649;28;20524;-60
2022/03/09 01:55:57;;;;;;;4.43;1.83;;;2.30;99.90;;;;;;5058066;28;20478;-59
2022/03/09 01:58:24;;;;;;;4.55;1.75;;;2.30;99.90;;;;;;5057135;28;20502;-59
2022/03/09 02:00:52;;;;;;;3.00;2.10;;;2.30;99.90;;;;;;5057572;28;20459;-59
2022/03/09 02:03:19;;;;;;;6.05;2.55;;;2.40;99.90;;;;;;5056281;28;20951;-59
2022/03/09 02:05:46;;;;;;;3.80;1.90;;;2.40;99.90;;;;;;5057994;28;20846;-60
2022/03/09 02:10:57;;;;;;;5.25;2.55;;;2.10;99.90;;;;;;5051493;28;20471;-59
2022/03/09 02:13:23;;;;;;;5.15;2.10;;;2.00;99.90;;;;;;5055644;28;20506;-60
2022/03/09 02:15:52;;;;;;;2.85;1.60;;;1.80;99.90;;;;;;5057099;28;20500;-59
2022/03/09 02:18:18;;;;;;;4.93;2.00;;;1.80;99.90;;;;;;5048629;28;20462;-59
2022/03/09 02:20:48;;;;;;;3.30;1.90;;;1.80;99.90;;;;;;5054409;28;20661;-60
2022/03/09 02:23:16;;;;;;;5.10;2.20;;;1.80;99.90;;;;;;5055000;28;20438;-60
2022/03/09 02:25:43;;;;;;;3.72;1.80;;;1.80;99.90;;;;;;5057316;28;20920;-60
2022/03/09 02:28:10;;;;;;;3.75;1.60;;;1.70;99.90;;;;;;5054826;28;20535;-58
2022/03/09 02:30:37;;;;;;;4.05;1.50;;;1.80;99.90;;;;;;5056332;28;20852;-57
2022/03/09 02:33:04;;;;;;;3.05;1.73;;;1.80;99.90;;;;;;5054560;28;20522;-60
2022/03/09 02:35:31;;;;;;;5.73;1.80;;;1.90;99.90;;;;;;5056676;28;20540;-58
2022/03/09 02:37:57;;;;;;;3.03;1.67;;;1.90;99.90;;;;;;5052300;28;20549;-58
2022/03/09 02:40:26;;;;;;;4.00;2.00;;;1.90;99.90;;;;;;5057136;28;20512;-58
2022/03/09 02:42:53;;;;;;;4.38;1.80;;;1.90;99.90;;;;;;5054935;28;20528;-59
2022/03/09 02:45:20;;;;;;;6.32;2.00;;;2.00;99.90;;;;;;5057633;28;20519;-58
2022/03/09 02:47:47;;;;;;;2.88;1.88;;;1.90;99.90;;;;;;5052671;28;20429;-58
2022/03/09 02:50:15;;;;;;;3.65;1.40;;;1.90;99.90;;;;;;5057450;28;20729;-58
2022/03/09 02:52:44;;;;;;;3.65;1.60;;;1.80;99.90;;;;;;5054376;28;20421;-59
2022/03/09 02:55:11;;;;;;;4.80;1.80;;;1.60;99.90;;;;;;5051194;28;20421;-58
2022/03/09 02:57:40;;;;;;;4.07;1.98;;;1.60;99.90;;;;;;5055318;28;20764;-57
2022/03/09 03:00:09;;;;;;;3.30;1.90;;;1.60;99.90;;;;;;5056938;28;20456;-59
2022/03/09 03:02:36;;;;;;;4.75;1.95;;;1.60;99.90;;;;;;5054770;28;20437;-58
2022/03/09 03:05:03;;;;;;;3.30;1.90;;;1.70;99.90;;;;;;5049459;28;20512;-59
2022/03/09 03:07:30;;;;;;;3.15;1.90;;;1.80;99.90;;;;;;5056700;28;20516;-58
2022/03/09 03:09:57;;;;;;;3.53;1.80;;;1.80;99.90;;;;;;5055299;28;20429;-58
2022/03/09 03:12:24;;;;;;;4.05;1.33;;;1.70;99.90;;;;;;5056338;28;20448;-59
2022/03/09 03:14:53;;;;;;;2.83;1.45;;;1.60;99.90;;;;;;5056065;28;20467;-58
2022/03/09 03:17:20;;;;;;;4.20;1.70;;;1.60;99.90;;;;;;5056907;28;20421;-60
2022/03/09 03:19:47;;;;;;;3.20;1.70;;;1.70;99.90;;;;;;5055102;28;20429;-58
2022/03/09 03:22:14;;;;;;;3.13;1.45;;;1.80;99.90;;;;;;5056799;28;20506;-58
2022/03/09 03:24:40;;;;;;;3.38;1.50;;;1.80;99.90;;;;;;5055294;28;20461;-59
2022/03/09 03:27:07;;;;;;;5.60;1.90;;;1.70;99.90;;;;;;5056268;28;20460;-58
2022/03/09 03:29:34;;;;;;;4.60;1.90;;;1.70;99.90;;;;;;5054774;28;20433;-58
2022/03/09 03:32:03;;;;;;;3.00;1.63;;;1.70;99.90;;;;;;5056128;28;20795;-58
2022/03/09 03:34:30;;;;;;;3.13;1.90;;;1.60;99.90;;;;;;5054092;28;20578;-59
2022/03/09 03:36:56;;;;;;;2.90;1.60;;;1.50;99.90;;;;;;5055810;28;20463;-59
2022/03/09 03:39:23;;;;;;;4.85;1.77;;;1.50;99.90;;;;;;5054613;28;20515;-59
2022/03/09 03:41:50;;;;;;;4.05;1.60;;;1.50;99.90;;;;;;5055738;28;20490;-59
2022/03/09 03:44:17;;;;;;;3.00;1.50;;;1.30;99.90;;;;;;5052954;28;20832;-59
2022/03/09 03:46:44;;;;;;;3.58;1.60;;;1.30;99.90;;;;;;5056782;28;20453;-59
2022/03/09 03:49:12;;;;;;;3.17;1.40;;;1.40;99.90;;;;;;5054300;28;20526;-59
2022/03/09 03:51:39;;;;;;;4.55;1.80;;;1.40;99.90;;;;;;5056190;28;20491;-59
2022/03/09 03:54:06;;;;;;;4.40;1.50;;;1.40;99.90;;;;;;5053662;28;20461;-60
2022/03/09 03:56:33;;;;;;;2.88;1.50;;;1.40;99.90;;;;;;5056520;28;20508;-59
2022/03/09 03:59:00;;;;;;;2.33;1.30;;;1.50;99.90;;;;;;5054158;28;20898;-59
2022/03/09 04:01:27;;;;;;;3.40;1.48;;;1.60;99.90;;;;;;5054698;28;20494;-59
2022/03/09 04:03:54;;;;;;;5.15;1.80;;;1.50;99.90;;;;;;5052716;28;20548;-59
2022/03/09 04:06:22;;;;;;;3.10;1.67;;;1.50;99.90;;;;;;5054428;28;20417;-59
2022/03/09 04:08:49;;;;;;;3.40;1.70;;;1.50;1.00;;;;;;5053210;28;20433;-59
2022/03/09 04:11:16;;;;;;;4.50;1.70;;;1.60;1.00;;;;;;5054157;28;20877;-59
2022/03/09 04:13:44;;;;;;;5.00;1.80;;;1.80;1.00;;;;;;5052922;28;20549;-59
2022/03/09 04:16:11;;;;;;;4.60;1.67;;;1.70;1.00;;;;;;5055113;28;20520;-60
2022/03/09 04:18:38;;;;;;;3.20;1.40;;;1.50;1.00;;;;;;5053138;28;20512;-59
2022/03/09 04:21:05;;;;;;;4.13;1.50;;;1.50;1.00;;;;;;5054374;28;20513;-59
2022/03/09 04:23:33;;;;;;;4.22;1.80;;;1.60;1.00;;;;;;5052885;28;20477;-59
2022/03/09 04:26:00;;;;;;;3.90;1.58;;;1.60;1.00;;;;;;5052872;28;20765;-59
2022/03/09 04:28:27;;;;;;;3.25;1.60;;;1.60;1.00;;;;;;5052145;28;20503;-59
2022/03/09 04:30:54;;;;;;;2.55;1.30;;;1.50;1.00;;;;;;5055029;28;20508;-59
2022/03/09 04:33:21;;;;;;;3.30;1.50;;;1.40;1.00;;;;;;5053301;28;20511;-59
2022/03/09 04:35:48;;;;;;;4.97;1.88;;;1.30;1.00;;;;;;5055050;28;20468;-59
2022/03/09 04:38:15;;;;;;;3.88;1.70;;;1.30;1.00;;;;;;5047243;28;20462;-59
2022/03/09 04:40:43;;;;;;;3.50;1.70;;;1.30;1.00;;;;;;5052658;28;20586;-59
2022/03/09 04:43:10;;;;;;;3.97;1.55;;;1.30;1.00;;;;;;5052669;28;20469;-59
2022/03/09 04:45:37;;;;;;;3.00;1.40;;;1.30;1.00;;;;;;5055557;28;20504;-59
2022/03/09 04:48:04;;;;;;;2.60;1.30;;;1.10;1.00;;;;;;5048120;28;20537;-59
2022/03/09 04:50:31;;;;;;;4.28;1.58;;;1.10;1.00;;;;;;5055083;28;20798;-59
2022/03/09 04:52:58;;;;;;;3.58;1.60;;;1.00;1.00;;;;;;5052985;28;20790;-59
2022/03/09 04:55:25;;;;;;;2.65;1.33;;;1.00;1.00;;;;;;5055124;28;20417;-59
2022/03/09 04:57:53;;;;;;;2.92;1.40;;;1.00;1.00;;;;;;5048354;28;20519;-59
2022/03/09 05:00:20;;;;;;;3.72;1.50;;;1.00;1.00;;;;;;5054744;28;20464;-59
2022/03/09 05:02:47;;;;;;;3.95;1.50;;;1.10;1.00;;;;;;5052595;28;20445;-59
2022/03/09 05:05:14;;;;;;;3.95;1.80;;;1.10;1.00;;;;;;5053832;28;20460;-59
2022/03/09 05:07:41;;;;;;;4.03;1.40;;;1.10;1.00;;;;;;5050213;28;20421;-59
2022/03/09 05:10:09;;;;;;;4.70;1.58;;;1.10;1.00;;;;;;5046056;28;20431;-59
2022/03/09 05:12:36;;;;;;;4.85;2.05;;;1.10;1.00;;;;;;5048818;28;20464;-59
2022/03/09 05:15:05;;;;;;;2.90;1.38;;;1.10;1.00;;;;;;5053188;28;20508;-60
2022/03/09 05:17:32;;;;;;;4.00;1.80;;;1.10;1.00;;;;;;5052983;28;20869;-59
2022/03/09 05:19:59;;;;;;;3.75;1.88;;;1.10;1.00;;;;;;5053056;28;20508;-59
2022/03/09 05:22:26;;;;;;;5.57;1.73;;;1.10;1.00;;;;;;5036930;28;20518;-59
2022/03/09 05:24:53;;;;;;;4.10;1.67;;;1.10;1.00;;;;;;5030878;28;20526;-59
2022/03/09 05:27:20;;;;;;;2.85;1.40;;;0.90;1.00;;;;;;5037497;28;20460;-59
2022/03/09 05:29:47;;;;;;;3.22;1.50;;;0.80;1.00;;;;;;5050359;28;20433;-59
2022/03/09 05:32:15;;;;;;;3.60;1.40;;;0.80;1.00;;;;;;5051446;28;20432;-59
2022/03/09 05:34:42;;;;;;;3.60;1.80;;;0.90;1.00;;;;;;5033588;28;20965;-59
2022/03/09 05:37:09;;;;;;;4.47;1.40;;;1.10;1.00;;;;;;5045754;28;20852;-59
2022/03/09 05:39:36;;;;;;;5.45;1.90;;;1.00;1.00;;;;;;5051145;28;20471;-59
2022/03/09 05:42:03;;;;;;;3.90;1.70;;;1.00;1.00;;;;;;5050940;28;20472;-59
2022/03/09 05:44:30;;;;;;;2.90;1.50;;;1.00;1.00;;;;;;5049535;28;20505;-59
2022/03/09 05:46:57;;;;;;;3.42;1.35;;;1.00;1.00;;;;;;5053607;28;20825;-59
2022/03/09 05:49:26;;;;;;;3.20;1.60;;;1.10;1.00;;;;;;5034190;28;20524;-59
2022/03/09 05:51:53;;;;;;;3.47;1.60;;;1.20;1.00;;;;;;5034713;28;20430;-59
2022/03/09 05:54:20;;;;;;;2.30;1.40;;;1.30;1.00;;;;;;5043759;28;20856;-59
2022/03/09 05:56:47;;;;;;;3.40;1.40;;;1.40;1.00;;;;;;5052159;28;20852;-59
2022/03/09 05:59:14;;;;;;;3.40;1.35;;;1.40;1.00;;;;;;5048995;28;20520;-59
2022/03/09 06:01:41;;;;;;;3.17;1.40;;;1.30;1.00;;;;;;5051861;28;20425;-59
2022/03/09 06:04:08;;;;;;;3.80;1.30;;;1.20;1.00;;;;;;5051222;28;20464;-59
2022/03/09 06:06:36;;;;;;;2.75;1.45;;;1.40;1.00;;;;;;5051206;28;20473;-59
2022/03/09 06:09:03;;;;;;;2.70;1.50;;;2.00;1.00;;;;;;5032331;28;20470;-59
2022/03/09 06:11:30;;;;;;;3.83;1.65;;;2.50;1.00;;;;;;5034160;28;20516;-60
2022/03/09 06:13:57;;;;;;;3.50;1.60;;;2.60;1.00;;;;;;5050278;28;20718;-59
2022/03/09 06:16:24;;;;;;;3.50;1.60;;;2.40;1.00;;;;;;5040239;28;20838;-60
2022/03/09 06:18:51;;;;;;;2.80;1.60;;;2.60;1.00;;;;;;5031315;28;20459;-60
2022/03/09 06:21:18;;;;;;;2.40;1.35;;;2.70;1.00;;;;;;5047807;28;20464;-59
2022/03/09 06:23:46;;;;;;;2.50;1.10;;;2.80;1.00;;;;;;5041212;28;20980;-59
2022/03/09 06:26:13;;;;;;;4.47;1.60;;;2.90;1.00;;;;;;5045834;28;20455;-59
2022/03/09 06:28:40;;;;;;;3.30;1.30;;;3.00;1.00;;;;;;5049994;28;20895;-60
2022/03/09 06:31:07;;;;;;;4.80;1.80;;;3.00;1.00;;;;;;5048173;28;20495;-59
2022/03/09 06:33:34;;;;;;;3.80;1.50;;;2.90;1.00;;;;;;5042009;28;21056;-59
2022/03/09 06:36:01;;;;;;;3.42;1.60;;;2.90;1.00;;;;;;5043488;28;20522;-59
2022/03/09 06:38:28;;;;;;;2.22;1.30;;;2.90;1.00;;;;;;5038171;28;20489;-59
2022/03/09 06:40:56;;;;;;;2.97;1.30;;;3.00;1.00;;;;;;5042801;28;20456;-59
2022/03/09 06:43:23;;;;;;;4.28;1.50;;;3.30;1.00;;;;;;5048861;28;20528;-60
2022/03/09 06:45:50;;;;;;;4.97;1.60;;;3.40;1.00;;;;;;5049756;28;20456;-59
2022/03/09 06:48:17;;;;;;;2.95;1.70;;;3.50;1.00;;;;;;5053440;28;20967;-59
2022/03/09 06:50:44;;;;;;;3.70;1.73;;;3.60;1.00;;;;;;5055191;28;20495;-58
2022/03/09 06:53:11;;;;;;;4.18;1.70;;;3.70;1.00;;;;;;5051755;28;20868;-58
2022/03/09 06:55:38;;;;;;;3.70;1.70;;;3.70;1.00;;;;;;5043364;28;20515;-59
2022/03/09 06:58:06;;;;;;;6.63;1.95;;;3.50;99.90;;;;;;5050640;28;20849;-59
2022/03/09 07:00:36;;;;;;;3.28;1.80;;;3.20;99.90;;;;;;5052526;28;20457;-58
2022/03/09 07:03:05;;;;;;;3.58;1.80;;;3.10;1.00;;;;;;5044085;28;20767;-59
2022/03/09 07:05:32;;;;;;;2.95;1.60;;;3.10;1.00;;;;;;5048218;28;20425;-58
2022/03/09 07:07:59;;;;;;;4.47;1.60;;;3.40;1.00;;;;;;5051263;28;20518;-58
2022/03/09 07:10:26;;;;;;;4.22;2.38;;;3.50;99.90;;;;;;5050795;28;20500;-59
2022/03/09 07:12:53;;;;;;;4.30;2.10;;;3.50;99.90;;;;;;5040199;28;20537;-58
2022/03/09 07:15:22;;;;;;;5.28;1.52;;;3.20;99.90;;;;;;5051380;28;20417;-58
2022/03/09 07:17:50;;;;;;;4.22;1.80;;;3.50;99.90;;;;;;5048920;28;20427;-61
2022/03/09 07:20:19;;;;;;;4.90;1.80;;;3.70;99.90;;;;;;5053576;28;20429;-58
2022/03/09 07:22:47;;;;;;;5.40;2.72;;;3.80;99.90;;;;;;5048641;28;20429;-59
2022/03/09 07:25:15;;;;;;;6.18;2.63;;;3.80;99.90;;;;;;5043202;28;20519;-58
2022/03/09 07:27:42;;;;;;;6.38;2.20;;;3.40;99.90;;;;;;5046153;28;20512;-59
2022/03/09 07:30:11;;;;;;;5.75;2.70;;;3.10;99.90;;;;;;5062904;28;20425;-58
2022/03/09 07:32:40;;;;;;;4.60;2.10;;;2.90;99.90;;;;;;5052170;28;20429;-59
2022/03/09 07:35:09;;;;;;;5.55;2.45;;;2.80;99.90;;;;;;5054544;28;20456;-60
2022/03/09 07:37:36;;;;;;;6.20;2.88;;;2.70;99.90;;;;;;5046184;28;20515;-58
2022/03/09 07:40:04;;;;;;;3.97;2.20;;;2.50;99.90;;;;;;5046440;28;20489;-58
2022/03/09 07:42:31;;;;;;;6.03;2.20;;;2.50;99.90;;;;;;5045824;28;20487;-63
2022/03/09 07:44:58;;;;;;;4.25;2.40;;;2.50;99.90;;;;;;5051213;28;20430;-59
2022/03/09 07:47:25;;;;;;;6.20;2.70;;;3.00;99.90;;;;;;5048020;28;20431;-59
2022/03/09 07:49:53;;;;;;;4.53;2.30;;;3.40;99.90;;;;;;5046143;28;20462;-58
2022/03/09 07:52:20;;;;;;;4.53;2.08;;;3.80;99.90;;;;;;5046914;28;20460;-59
2022/03/09 07:54:47;;;;;;;5.55;2.08;;;4.10;99.90;;;;;;5035032;28;20882;-58
2022/03/09 07:57:14;;;;;;;5.82;1.92;;;4.30;99.90;;;;;;5038159;28;20975;-59
2022/03/09 07:59:41;;;;;;;4.78;2.80;;;4.30;99.90;;;;;;5047395;28;21085;-59
2022/03/09 08:02:09;;;;;;;6.30;3.03;;;4.30;99.90;;;;;;5051869;28;20787;-60
2022/03/09 08:04:36;;;;;;;7.90;3.08;;;4.30;1.00;;;;;;5047137;28;20880;-59
2022/03/09 08:07:04;;;;;;;9.77;5.32;;;4.20;99.90;;;;;;5053204;28;20488;-60
2022/03/09 08:09:31;;;;;;;10.60;4.85;;;4.20;99.90;;;;;;5040269;28;20529;-60
2022/03/09 08:11:58;;;;;;;6.35;3.10;;;4.30;99.90;;;;;;5060115;28;20463;-60
2022/03/09 08:14:25;;;;;;;6.40;3.72;;;4.20;99.90;;;;;;5041298;28;20521;-60
2022/03/09 08:16:52;;;;;;;5.95;3.28;;;4.00;99.90;;;;;;5065871;28;20593;-58
2022/03/09 08:19:19;;;;;;;6.93;3.45;;;3.80;99.90;;;;;;5043945;28;20477;-60
2022/03/09 08:21:46;;;;;;;4.00;1.77;;;3.60;99.90;;;;;;5040521;28;20427;-56
2022/03/09 08:24:14;;;;;;;3.70;1.88;;;3.60;99.90;;;;;;5037806;28;20435;-59
2022/03/09 08:26:41;;;;;;;6.45;2.50;;;3.60;99.90;;;;;;5043618;28;21100;-60
2022/03/09 08:29:08;;;;;;;4.50;2.00;;;3.60;99.90;;;;;;5040580;28;20525;-60
2022/03/09 08:31:35;;;;;;;3.85;2.33;;;3.70;99.90;;;;;;5049597;28;20516;-60
2022/03/09 08:34:02;;;;;;;5.25;1.90;;;3.70;99.90;;;;;;5042027;28;20926;-59
2022/03/09 08:36:29;;;;;;;3.55;2.03;;;3.90;99.90;;;;;;5048772;28;20422;-59
2022/03/09 08:38:56;;;;;;;4.93;2.28;;;4.00;99.90;;;;;;5043851;28;21074;-58
2022/03/09 08:41:25;;;;;;;5.03;2.35;;;4.10;99.90;;;;;;5037028;28;20425;-58
2022/03/09 08:43:53;;;;;;;4.63;2.13;;;4.10;99.90;;;;;;5046533;28;20511;-58
2022/03/09 08:46:20;;;;;;;3.60;1.60;;;4.30;99.90;;;;;;5052443;28;20425;-58
2022/03/09 08:48:47;;;;;;;4.57;2.22;;;4.40;99.90;;;;;;5041730;28;20498;-60
2022/03/09 08:51:17;;;;;;;4.05;2.45;;;4.50;99.90;;;;;;5035976;28;20443;-60
2022/03/09 08:53:44;;;;;;;2.60;1.45;;;4.40;99.90;;;;;;5038345;28;20985;-59
2022/03/09 08:56:11;;;;;;;5.80;2.40;;;4.40;99.90;;;;;;5042177;28;20542;-55
2022/03/09 08:58:40;;;;;;;4.38;2.17;;;4.30;99.90;;;;;;5039367;28;20516;-57
2022/03/09 09:01:07;;;;;;;4.20;1.97;;;4.30;99.90;;;;;;5045533;28;20887;-58
2022/03/09 09:03:34;;;;;;;7.13;2.10;;;4.30;99.90;;;;;;5047045;28;20439;-57
2022/03/09 09:06:01;;;;;;;6.93;2.30;;;4.40;99.90;;;;;;5039720;28;20431;-58
2022/03/09 09:08:29;;;;;;;6.10;2.30;;;4.50;99.90;;;;;;5044960;28;20467;-55
2022/03/09 09:10:56;;;;;;;5.20;2.55;;;4.70;99.90;;;;;;5046351;28;20756;-57
2022/03/09 09:13:23;;;;;;;4.97;2.38;;;4.90;99.90;;;;;;5046124;28;20433;-56
2022/03/09 09:15:51;;;;;;;4.60;1.85;;;4.90;99.90;;;;;;5044816;28;20504;-57
2022/03/09 09:18:18;;;;;;;3.88;2.47;;;5.10;99.90;;;;;;5043567;28;20557;-57
2022/03/09 09:20:45;;;;;;;5.43;2.92;;;5.20;99.90;;;;;;5048879;28;20425;-56
2022/03/09 09:23:12;;;;;;;6.60;3.03;;;5.20;99.90;;;;;;5049230;28;20914;-57
2022/03/09 09:25:39;;;;;;;5.18;2.40;;;5.30;99.90;;;;;;5045909;28;20425;-57
2022/03/09 09:28:06;;;;;;;4.50;2.35;;;5.50;99.90;;;;;;5037558;28;20784;-55
2022/03/09 09:30:34;;;;;;;6.85;3.38;;;5.60;99.90;;;;;;5032623;28;20434;-54
2022/03/09 09:33:02;;;;;;;12.93;5.85;;;5.70;99.90;;;;;;5037079;28;20436;-56
2022/03/09 09:35:32;;;;;;;8.30;3.42;;;5.80;99.90;;;;;;5045635;28;20516;-58
2022/03/09 09:38:06;;;;;;;4.93;3.00;;;6.00;99.90;;;;;;5044484;28;20507;-57
2022/03/09 09:40:34;;;;;;;6.57;2.60;;;6.20;99.90;;;;;;5047756;28;20490;-54
2022/03/09 09:43:07;;;;;;;5.13;2.58;;;6.30;99.90;;;;;;5048509;28;20431;-57
2022/03/09 09:45:36;;;;;;;7.10;3.30;;;6.50;99.90;;;;;;5046473;28;20520;-54
2022/03/09 09:48:06;;;;;;;4.20;2.20;;;6.60;99.90;;;;;;5036753;28;20439;-58
2022/03/09 09:50:35;;;;;;;5.53;2.28;;;6.80;99.90;;;;;;5043043;28;20448;-56
2022/03/09 09:53:04;;;;;;;5.10;2.50;;;7.00;99.90;;;;;;5043251;28;20509;-57
2022/03/09 09:55:33;;;;;;;4.15;2.83;;;7.00;99.90;;;;;;5050483;28;20421;-61
2022/03/09 09:58:00;;;;;;;7.85;2.80;;;7.10;99.90;;;;;;5054993;28;20439;-56
2022/03/09 10:00:27;;;;;;;3.58;2.28;;;7.30;99.90;;;;;;5055527;28;20429;-57
2022/03/09 10:02:54;;;;;;;3.50;2.63;;;7.50;99.90;;;;;;5042502;28;20437;-56
2022/03/09 10:05:23;;;;;;;6.40;3.47;;;7.60;99.90;;;;;;5063027;28;20432;-55
2022/03/09 10:08:14;;;;;;;5.30;2.80;;;7.80;99.90;;;;;;5051147;28;20486;-57
2022/03/09 10:10:43;;;;;;;5.05;2.30;;;8.10;99.90;;;;;;5048218;28;20536;-55
2022/03/09 10:13:12;;;;;;;4.85;2.53;;;8.30;99.90;;;;;;5050043;28;20433;-54
2022/03/09 10:15:40;;;;;;;5.80;3.20;;;8.80;99.90;;;;;;5053685;28;20879;-53
2022/03/09 10:18:18;;;;;;;4.20;2.70;;;9.10;99.90;;;;;;5053093;28;20551;-57
2022/03/09 10:20:48;;;;;;;4.90;2.90;;;9.20;99.90;;;;;;5056525;28;20485;-56
2022/03/09 10:23:15;;;;;;;6.13;3.05;;;9.50;99.90;;;;;;5075549;28;20463;-66
2022/03/09 10:25:43;;;;;;;4.60;2.83;;;9.70;99.90;;;;;;5057348;28;20433;-65
2022/03/09 10:28:11;;;;;;;4.77;2.30;;;9.90;99.90;;;;;;5045897;28;20822;-67
2022/03/09 10:30:40;;;;;;;5.28;3.00;;;10.10;99.90;;;;;;5055009;28;20475;-68
2022/03/09 10:33:09;;;;;;;6.45;2.90;;;10.10;99.90;;;;;;5048082;28;20436;-69
2022/03/09 10:35:43;;;;;;;7.30;3.30;;;10.20;99.90;;;;;;5049636;28;20441;-62
2022/03/09 10:38:23;;;;;;;8.70;4.70;;;10.60;99.90;;;;;;5047487;28;20789;-60
2022/03/09 10:40:55;;;;;;;7.05;3.67;;;11.00;99.90;;;;;;5047396;28;20849;-60
2022/03/09 10:43:24;;;;;;;5.47;3.50;;;10.90;99.90;;;;;;5048206;28;20492;-61
2022/03/09 10:46:07;;;;;;;7.38;3.40;;;10.70;99.90;;;;;;5053177;28;20441;-60
2022/03/09 10:48:53;;;;;;;9.52;3.67;;;10.70;99.90;;;;;;5046554;28;20439;-62
2022/03/09 10:51:32;;;;;;;7.70;3.20;;;11.10;99.90;;;;;;5047166;28;20435;-61
2022/03/09 10:54:03;;;;;;;8.45;4.13;;;11.40;99.90;;;;;;5045538;28;20438;-62
2022/03/09 10:56:30;;;;;;;11.32;6.45;;;11.80;99.90;;;;;;5051215;28;20457;-62
2022/03/09 10:58:57;;;;;;;6.28;4.20;;;12.00;99.90;;;;;;5062173;28;20894;-63
2022/03/09 11:01:25;;;;;;;8.23;4.45;;;12.20;99.90;;;;;;5052973;28;20520;-59
2022/03/09 11:03:52;;;;;;;6.18;2.90;;;12.20;99.90;;;;;;5072866;28;20767;-60
2022/03/09 11:06:22;;;;;;;5.03;3.30;;;12.50;99.90;;;;;;5070525;28;20477;-60
2022/03/09 11:08:49;;;;;;;6.40;3.30;;;12.60;99.90;;;;;;5055098;28;20467;-60
2022/03/09 11:11:20;;;;;;;5.85;3.85;;;12.70;99.90;;;;;;5054841;28;20515;-62
2022/03/09 11:13:47;;;;;;;6.20;2.90;;;12.60;99.90;;;;;;5052739;28;20524;-60
2022/03/09 11:16:14;;;;;;;4.90;3.53;;;12.80;99.90;;;;;;5042300;28;20502;-60
2022/03/09 11:18:42;;;;;;;7.10;3.80;;;12.70;99.90;;;;;;5051406;28;20436;-60
2022/03/09 11:21:10;;;;;;;5.95;4.03;;;12.90;99.90;;;;;;5040908;28;20452;-58
2022/03/09 11:23:40;;;;;;;6.43;3.95;;;13.20;99.90;;;;;;5048266;28;21111;-59
2022/03/09 11:26:10;;;;;;;5.40;3.60;;;13.20;99.90;;;;;;5035880;28;20521;-58
2022/03/09 11:28:40;;;;;;;6.68;4.22;;;13.00;99.90;;;;;;5047717;28;20472;-58
2022/03/09 11:31:09;;;;;;;7.10;4.73;;;13.10;99.90;;;;;;5041339;28;20479;-59
2022/03/09 11:33:40;;;;;;;6.75;4.68;;;13.00;99.90;;;;;;5045830;28;20465;-58
2022/03/09 11:36:35;;;;;;;6.78;4.80;;;13.20;99.90;;;;;;5047482;28;20425;-58
2022/03/09 11:39:24;;;;;;;7.75;4.65;;;13.60;99.90;;;;;;5048488;28;20524;-58
2022/03/09 11:42:25;;;;;;;7.97;5.70;;;13.80;99.90;;;;;;5038420;28;20955;-59
2022/03/09 11:44:55;;;;;;;7.00;4.23;;;13.90;99.90;;;;;;5048680;28;20442;-58
2022/03/09 11:47:22;;;;;;;8.37;5.33;;;13.80;99.90;;;;;;5042249;28;20520;-58
2022/03/09 11:50:07;;;;;;;7.78;4.07;;;14.00;99.90;;;;;;5030523;28;20438;-58
2022/03/09 11:52:34;;;;;;;8.13;4.47;;;14.20;99.90;;;;;;5038291;28;20421;-57
2022/03/09 11:55:02;;;;;;;7.28;4.68;;;14.20;99.90;;;;;;5043957;28;20431;-58
2022/03/09 11:58:04;;;;;;;6.10;4.10;;;13.70;99.90;;;;;;5036346;28;20427;-58
2022/03/09 12:00:33;;;;;;;6.75;3.70;;;13.50;99.90;;;;;;5049835;28;20425;-59
2022/03/09 12:03:00;;;;;;;6.18;4.20;;;13.90;99.90;;;;;;5049573;28;20747;-60
2022/03/09 12:05:36;;;;;;;6.60;4.20;;;14.20;99.90;;;;;;5034082;28;20798;-58
2022/03/09 12:08:04;;;;;;;7.17;4.30;;;14.40;99.90;;;;;;5038850;28;20433;-59
2022/03/09 12:10:47;;;;;;;6.43;4.13;;;14.50;99.90;;;;;;5032914;28;20502;-58
2022/03/09 12:13:31;;;;;;;6.83;4.27;;;14.30;99.90;;;;;;5034382;28;20438;-59
2022/03/09 12:16:18;;;;;;;8.40;4.20;;;14.10;99.90;;;;;;5040006;28;20464;-58
2022/03/09 12:19:05;;;;;;;6.95;3.95;;;14.50;99.90;;;;;;5037933;28;20436;-59
2022/03/09 12:22:07;;;;;;;6.57;4.40;;;14.50;99.90;;;;;;5047192;28;20431;-58
2022/03/09 12:24:36;;;;;;;8.97;3.90;;;14.00;99.90;;;;;;5049954;28;20437;-59
2022/03/09 12:27:25;;;;;;;6.07;4.00;;;13.90;99.90;;;;;;5052258;28;20429;-59
2022/03/09 12:29:52;;;;;;;5.50;4.00;;;14.10;99.90;;;;;;5052061;28;20823;-60
2022/03/09 12:32:22;;;;;;;11.17;5.10;;;14.40;99.90;;;;;;5044386;28;20472;-63
2022/03/09 12:34:50;;;;;;;134.00;21.67;;;14.50;99.90;;;;;;5032203;28;20474;-62
2022/03/09 12:37:19;;;;;;;8.27;5.13;;;14.50;99.90;;;;;;5044058;28;20434;-63
2022/03/09 12:39:56;;;;;;;8.60;5.03;;;14.60;99.90;;;;;;5063592;28;20435;-63
2022/03/09 12:42:23;;;;;;;8.10;3.13;;;14.40;99.90;;;;;;5056498;28;20508;-63
2022/03/09 12:44:53;;;;;;;6.77;4.50;;;14.60;99.90;;;;;;5050898;28;20530;-64
2022/03/09 12:47:22;;;;;;;8.68;5.45;;;14.40;99.90;;;;;;5054135;28;20519;-63
2022/03/09 12:49:54;;;;;;;9.80;5.60;;;14.30;99.90;;;;;;5050988;28;20518;-63
2022/03/09 12:52:23;;;;;;;8.13;5.03;;;14.00;99.90;;;;;;5052060;28;20432;-64
2022/03/09 12:54:51;;;;;;;6.90;3.72;;;14.00;99.90;;;;;;5051149;28;20516;-63
2022/03/09 12:57:21;;;;;;;6.83;3.63;;;14.10;99.90;;;;;;5052643;28;20427;-62
2022/03/09 12:59:57;;;;;;;5.83;3.50;;;14.00;99.90;;;;;;5039312;28;20974;-62
2022/03/09 13:02:26;;;;;;;6.43;3.40;;;13.90;99.90;;;;;;5031494;28;20902;-63
2022/03/09 13:05:00;;;;;;;5.22;3.00;;;14.10;99.90;;;;;;5031934;28;20526;-64
2022/03/09 13:07:28;;;;;;;6.27;4.10;;;13.60;99.90;;;;;;5031931;28;20828;-64